sensor_id;sensor_type;location;lat;lon;timestamp;P1;durP1;ratioP1;P2;durP2;ratioP2
7336;SDS011;54510;42.016;23.098;2023-06-22T00:01:08;9.55;;;6.70;;
7336;SDS011;54510;42.016;23.098;2023-06-22T00:03:33;9.93;;;6.93;;
7336;SDS011;54510;42.016;23.098;2023-06-22T00:05:59;8.00;;;6.90;;
7336;SDS011;54510;42.016;23.098;2023-06-22T00:08:24;8.10;;;6.32;;
7336;SDS011;54510;42.016;23.098;2023-06-22T00:10:50;8.05;;;6.30;;
7336;SDS011;54510;42.016;23.098;2023-06-22T00:13:16;8.23;;;6.70;;
7336;SDS011;54510;42.016;23.098;2023-06-22T00:15:43;8.05;;;6.88;;
7336;SDS011;54510;42.016;23.098;2023-06-22T00:18:09;8.43;;;6.65;;
7336;SDS011;54510;42.016;23.098;2023-06-22T00:20:35;7.30;;;6.38;;
7336;SDS011;54510;42.016;23.098;2023-06-22T00:23:04;12.82;;;6.80;;
7336;SDS011;54510;42.016;23.098;2023-06-22T00:25:37;8.07;;;6.63;;
7336;SDS011;54510;42.016;23.098;2023-06-22T00:28:05;9.05;;;6.97;;
7336;SDS011;54510;42.016;23.098;2023-06-22T00:30:31;10.68;;;6.78;;
7336;SDS011;54510;42.016;23.098;2023-06-22T00:32:57;7.22;;;6.15;;
7336;SDS011;54510;42.016;23.098;2023-06-22T00:35:23;10.90;;;7.13;;
7336;SDS011;54510;42.016;23.098;2023-06-22T00:37:54;8.00;;;6.38;;
7336;SDS011;54510;42.016;23.098;2023-06-22T00:40:28;6.68;;;5.93;;
7336;SDS011;54510;42.016;23.098;2023-06-22T00:42:55;7.85;;;6.47;;
7336;SDS011;54510;42.016;23.098;2023-06-22T00:45:24;7.88;;;5.80;;
7336;SDS011;54510;42.016;23.098;2023-06-22T00:47:54;10.30;;;6.95;;
7336;SDS011;54510;42.016;23.098;2023-06-22T00:50:24;8.07;;;6.82;;
7336;SDS011;54510;42.016;23.098;2023-06-22T00:52:51;10.35;;;6.50;;
7336;SDS011;54510;42.016;23.098;2023-06-22T00:55:21;8.32;;;6.82;;
7336;SDS011;54510;42.016;23.098;2023-06-22T00:57:48;11.10;;;7.70;;
7336;SDS011;54510;42.016;23.098;2023-06-22T01:00:14;9.13;;;7.38;;
7336;SDS011;54510;42.016;23.098;2023-06-22T01:02:45;9.40;;;6.95;;
7336;SDS011;54510;42.016;23.098;2023-06-22T01:05:14;8.95;;;6.97;;
7336;SDS011;54510;42.016;23.098;2023-06-22T01:07:42;8.88;;;7.47;;
7336;SDS011;54510;42.016;23.098;2023-06-22T01:10:17;9.65;;;7.25;;
7336;SDS011;54510;42.016;23.098;2023-06-22T01:12:53;11.73;;;7.57;;
7336;SDS011;54510;42.016;23.098;2023-06-22T01:18:11;10.35;;;6.80;;
7336;SDS011;54510;42.016;23.098;2023-06-22T01:20:39;9.48;;;7.72;;
7336;SDS011;54510;42.016;23.098;2023-06-22T01:31:19;11.25;;;8.70;;
7336;SDS011;54510;42.016;23.098;2023-06-22T01:33:51;10.38;;;8.55;;
7336;SDS011;54510;42.016;23.098;2023-06-22T01:36:19;8.50;;;6.50;;
7336;SDS011;54510;42.016;23.098;2023-06-22T01:38:47;10.73;;;6.30;;
7336;SDS011;54510;42.016;23.098;2023-06-22T01:41:12;7.22;;;5.90;;
7336;SDS011;54510;42.016;23.098;2023-06-22T01:43:38;9.77;;;5.85;;
7336;SDS011;54510;42.016;23.098;2023-06-22T01:46:04;8.13;;;6.18;;
7336;SDS011;54510;42.016;23.098;2023-06-22T01:48:30;8.23;;;5.97;;
7336;SDS011;54510;42.016;23.098;2023-06-22T01:50:56;8.32;;;6.00;;
7336;SDS011;54510;42.016;23.098;2023-06-22T01:53:22;8.88;;;5.78;;
7336;SDS011;54510;42.016;23.098;2023-06-22T01:55:48;9.95;;;6.95;;
7336;SDS011;54510;42.016;23.098;2023-06-22T01:58:14;7.40;;;6.03;;
7336;SDS011;54510;42.016;23.098;2023-06-22T02:00:40;7.68;;;5.57;;
7336;SDS011;54510;42.016;23.098;2023-06-22T02:03:18;9.50;;;6.82;;
7336;SDS011;54510;42.016;23.098;2023-06-22T02:05:50;9.15;;;6.53;;
7336;SDS011;54510;42.016;23.098;2023-06-22T02:08:20;7.80;;;5.82;;
7336;SDS011;54510;42.016;23.098;2023-06-22T02:10:50;9.65;;;6.25;;
7336;SDS011;54510;42.016;23.098;2023-06-22T02:13:18;10.27;;;6.32;;
7336;SDS011;54510;42.016;23.098;2023-06-22T02:15:44;9.65;;;6.80;;
7336;SDS011;54510;42.016;23.098;2023-06-22T02:18:11;8.70;;;6.40;;
7336;SDS011;54510;42.016;23.098;2023-06-22T02:20:37;7.60;;;5.82;;
7336;SDS011;54510;42.016;23.098;2023-06-22T02:23:03;9.20;;;6.20;;
7336;SDS011;54510;42.016;23.098;2023-06-22T02:25:31;8.98;;;6.43;;
7336;SDS011;54510;42.016;23.098;2023-06-22T02:27:57;9.43;;;6.05;;
7336;SDS011;54510;42.016;23.098;2023-06-22T02:30:22;7.75;;;6.05;;
7336;SDS011;54510;42.016;23.098;2023-06-22T02:32:48;7.50;;;5.68;;
7336;SDS011;54510;42.016;23.098;2023-06-22T02:35:13;8.05;;;6.53;;
7336;SDS011;54510;42.016;23.098;2023-06-22T02:37:38;13.40;;;6.90;;
7336;SDS011;54510;42.016;23.098;2023-06-22T02:40:07;8.68;;;6.88;;
7336;SDS011;54510;42.016;23.098;2023-06-22T02:42:36;8.77;;;6.07;;
7336;SDS011;54510;42.016;23.098;2023-06-22T02:45:02;9.82;;;7.00;;
7336;SDS011;54510;42.016;23.098;2023-06-22T02:47:28;8.45;;;6.28;;
7336;SDS011;54510;42.016;23.098;2023-06-22T02:49:53;14.05;;;6.78;;
7336;SDS011;54510;42.016;23.098;2023-06-22T02:52:19;9.10;;;6.15;;
7336;SDS011;54510;42.016;23.098;2023-06-22T02:54:44;7.75;;;6.28;;
7336;SDS011;54510;42.016;23.098;2023-06-22T02:57:11;8.27;;;6.82;;
7336;SDS011;54510;42.016;23.098;2023-06-22T02:59:38;14.85;;;7.53;;
7336;SDS011;54510;42.016;23.098;2023-06-22T03:02:07;9.63;;;7.22;;
7336;SDS011;54510;42.016;23.098;2023-06-22T03:04:34;8.02;;;6.70;;
7336;SDS011;54510;42.016;23.098;2023-06-22T03:07:00;9.23;;;7.05;;
7336;SDS011;54510;42.016;23.098;2023-06-22T03:09:26;11.10;;;7.72;;
7336;SDS011;54510;42.016;23.098;2023-06-22T03:11:55;9.15;;;7.15;;
7336;SDS011;54510;42.016;23.098;2023-06-22T03:14:21;9.95;;;6.97;;
7336;SDS011;54510;42.016;23.098;2023-06-22T03:16:46;9.23;;;7.85;;
7336;SDS011;54510;42.016;23.098;2023-06-22T03:19:12;7.88;;;6.18;;
7336;SDS011;54510;42.016;23.098;2023-06-22T03:21:38;9.30;;;7.35;;
7336;SDS011;54510;42.016;23.098;2023-06-22T03:24:04;10.70;;;6.20;;
7336;SDS011;54510;42.016;23.098;2023-06-22T03:26:30;12.05;;;7.47;;
7336;SDS011;54510;42.016;23.098;2023-06-22T03:28:56;9.15;;;6.22;;
7336;SDS011;54510;42.016;23.098;2023-06-22T03:31:21;10.02;;;7.10;;
7336;SDS011;54510;42.016;23.098;2023-06-22T03:33:47;11.82;;;7.70;;
7336;SDS011;54510;42.016;23.098;2023-06-22T03:36:14;10.02;;;7.95;;
7336;SDS011;54510;42.016;23.098;2023-06-22T03:38:44;11.50;;;8.00;;
7336;SDS011;54510;42.016;23.098;2023-06-22T03:41:10;12.73;;;8.63;;
7336;SDS011;54510;42.016;23.098;2023-06-22T03:43:36;11.20;;;8.88;;
7336;SDS011;54510;42.016;23.098;2023-06-22T03:46:01;13.07;;;10.48;;
7336;SDS011;54510;42.016;23.098;2023-06-22T03:48:26;13.77;;;9.50;;
7336;SDS011;54510;42.016;23.098;2023-06-22T03:50:52;12.68;;;9.57;;
7336;SDS011;54510;42.016;23.098;2023-06-22T03:53:17;14.90;;;9.80;;
7336;SDS011;54510;42.016;23.098;2023-06-22T03:55:53;16.55;;;11.82;;
7336;SDS011;54510;42.016;23.098;2023-06-22T03:58:18;13.10;;;10.88;;
7336;SDS011;54510;42.016;23.098;2023-06-22T04:00:45;16.70;;;10.43;;
7336;SDS011;54510;42.016;23.098;2023-06-22T04:03:12;16.95;;;10.38;;
7336;SDS011;54510;42.016;23.098;2023-06-22T04:05:38;10.65;;;9.38;;
7336;SDS011;54510;42.016;23.098;2023-06-22T04:08:04;15.52;;;10.07;;
7336;SDS011;54510;42.016;23.098;2023-06-22T04:10:30;13.32;;;10.15;;
7336;SDS011;54510;42.016;23.098;2023-06-22T04:12:55;14.75;;;9.43;;
7336;SDS011;54510;42.016;23.098;2023-06-22T04:15:21;13.48;;;9.95;;
7336;SDS011;54510;42.016;23.098;2023-06-22T04:17:47;12.63;;;10.18;;
7336;SDS011;54510;42.016;23.098;2023-06-22T04:20:12;12.13;;;9.68;;
7336;SDS011;54510;42.016;23.098;2023-06-22T04:22:38;15.80;;;9.65;;
7336;SDS011;54510;42.016;23.098;2023-06-22T04:25:03;14.02;;;9.88;;
7336;SDS011;54510;42.016;23.098;2023-06-22T04:27:32;12.00;;;9.77;;
7336;SDS011;54510;42.016;23.098;2023-06-22T04:30:03;16.55;;;10.38;;
7336;SDS011;54510;42.016;23.098;2023-06-22T04:32:28;17.23;;;10.85;;
7336;SDS011;54510;42.016;23.098;2023-06-22T04:34:54;13.93;;;10.65;;
7336;SDS011;54510;42.016;23.098;2023-06-22T04:37:20;14.80;;;11.27;;
7336;SDS011;54510;42.016;23.098;2023-06-22T04:39:48;14.63;;;9.95;;
7336;SDS011;54510;42.016;23.098;2023-06-22T04:42:14;13.93;;;9.23;;
7336;SDS011;54510;42.016;23.098;2023-06-22T04:44:39;14.68;;;10.10;;
7336;SDS011;54510;42.016;23.098;2023-06-22T04:47:06;16.15;;;10.75;;
7336;SDS011;54510;42.016;23.098;2023-06-22T04:49:33;14.65;;;9.40;;
7336;SDS011;54510;42.016;23.098;2023-06-22T04:52:05;14.70;;;10.77;;
7336;SDS011;54510;42.016;23.098;2023-06-22T04:54:32;16.35;;;12.13;;
7336;SDS011;54510;42.016;23.098;2023-06-22T04:57:02;15.32;;;11.57;;
7336;SDS011;54510;42.016;23.098;2023-06-22T04:59:29;19.60;;;12.35;;
7336;SDS011;54510;42.016;23.098;2023-06-22T05:04:21;14.75;;;10.10;;
7336;SDS011;54510;42.016;23.098;2023-06-22T05:06:51;13.32;;;10.43;;
7336;SDS011;54510;42.016;23.098;2023-06-22T05:09:17;14.60;;;10.40;;
7336;SDS011;54510;42.016;23.098;2023-06-22T05:11:43;19.92;;;11.30;;
7336;SDS011;54510;42.016;23.098;2023-06-22T05:14:09;17.30;;;11.60;;
7336;SDS011;54510;42.016;23.098;2023-06-22T05:16:36;15.00;;;11.65;;
7336;SDS011;54510;42.016;23.098;2023-06-22T05:19:01;43.47;;;34.47;;
7336;SDS011;54510;42.016;23.098;2023-06-22T05:21:28;21.13;;;14.07;;
7336;SDS011;54510;42.016;23.098;2023-06-22T05:23:56;17.27;;;13.45;;
7336;SDS011;54510;42.016;23.098;2023-06-22T05:26:27;13.65;;;10.57;;
7336;SDS011;54510;42.016;23.098;2023-06-22T05:28:53;16.85;;;12.02;;
7336;SDS011;54510;42.016;23.098;2023-06-22T05:31:19;15.73;;;11.30;;
7336;SDS011;54510;42.016;23.098;2023-06-22T05:33:45;24.13;;;11.63;;
7336;SDS011;54510;42.016;23.098;2023-06-22T05:36:12;12.98;;;11.25;;
7336;SDS011;54510;42.016;23.098;2023-06-22T05:38:38;18.05;;;12.35;;
7336;SDS011;54510;42.016;23.098;2023-06-22T05:41:04;20.70;;;12.32;;
7336;SDS011;54510;42.016;23.098;2023-06-22T05:43:30;16.20;;;10.90;;
7336;SDS011;54510;42.016;23.098;2023-06-22T05:45:56;17.70;;;11.93;;
7336;SDS011;54510;42.016;23.098;2023-06-22T05:48:22;16.13;;;11.05;;
7336;SDS011;54510;42.016;23.098;2023-06-22T05:50:48;17.92;;;11.63;;
7336;SDS011;54510;42.016;23.098;2023-06-22T05:53:13;19.63;;;11.00;;
7336;SDS011;54510;42.016;23.098;2023-06-22T05:55:39;13.55;;;11.20;;
7336;SDS011;54510;42.016;23.098;2023-06-22T05:58:04;16.40;;;10.65;;
7336;SDS011;54510;42.016;23.098;2023-06-22T06:00:30;13.80;;;10.57;;
7336;SDS011;54510;42.016;23.098;2023-06-22T06:02:55;17.25;;;10.93;;
7336;SDS011;54510;42.016;23.098;2023-06-22T06:05:21;19.17;;;11.68;;
7336;SDS011;54510;42.016;23.098;2023-06-22T06:07:48;19.40;;;11.60;;
7336;SDS011;54510;42.016;23.098;2023-06-22T06:10:13;18.48;;;10.98;;
7336;SDS011;54510;42.016;23.098;2023-06-22T06:12:39;20.80;;;11.15;;
7336;SDS011;54510;42.016;23.098;2023-06-22T06:15:04;13.07;;;9.95;;
7336;SDS011;54510;42.016;23.098;2023-06-22T06:17:30;14.00;;;10.10;;
7336;SDS011;54510;42.016;23.098;2023-06-22T06:19:56;12.77;;;10.43;;
7336;SDS011;54510;42.016;23.098;2023-06-22T06:22:21;13.60;;;10.65;;
7336;SDS011;54510;42.016;23.098;2023-06-22T06:24:48;14.55;;;11.68;;
7336;SDS011;54510;42.016;23.098;2023-06-22T06:27:14;16.38;;;11.60;;
7336;SDS011;54510;42.016;23.098;2023-06-22T06:29:40;18.45;;;11.25;;
7336;SDS011;54510;42.016;23.098;2023-06-22T06:32:05;16.92;;;12.20;;
7336;SDS011;54510;42.016;23.098;2023-06-22T06:34:31;12.98;;;10.18;;
7336;SDS011;54510;42.016;23.098;2023-06-22T06:36:57;16.77;;;11.52;;
7336;SDS011;54510;42.016;23.098;2023-06-22T06:39:22;18.27;;;13.98;;
7336;SDS011;54510;42.016;23.098;2023-06-22T06:41:47;14.05;;;10.60;;
7336;SDS011;54510;42.016;23.098;2023-06-22T06:44:13;19.13;;;12.55;;
7336;SDS011;54510;42.016;23.098;2023-06-22T06:46:39;14.70;;;11.10;;
7336;SDS011;54510;42.016;23.098;2023-06-22T06:49:04;14.68;;;10.50;;
7336;SDS011;54510;42.016;23.098;2023-06-22T06:51:30;21.55;;;16.33;;
7336;SDS011;54510;42.016;23.098;2023-06-22T06:53:55;15.55;;;10.00;;
7336;SDS011;54510;42.016;23.098;2023-06-22T06:56:20;16.42;;;9.63;;
7336;SDS011;54510;42.016;23.098;2023-06-22T06:58:46;15.93;;;11.82;;
7336;SDS011;54510;42.016;23.098;2023-06-22T07:01:12;16.60;;;11.57;;
7336;SDS011;54510;42.016;23.098;2023-06-22T07:03:37;16.92;;;10.48;;
7336;SDS011;54510;42.016;23.098;2023-06-22T07:06:03;14.60;;;10.73;;
7336;SDS011;54510;42.016;23.098;2023-06-22T07:08:29;16.75;;;11.18;;
7336;SDS011;54510;42.016;23.098;2023-06-22T07:10:54;13.43;;;11.18;;
7336;SDS011;54510;42.016;23.098;2023-06-22T07:13:19;13.65;;;10.27;;
7336;SDS011;54510;42.016;23.098;2023-06-22T07:15:45;18.85;;;12.68;;
7336;SDS011;54510;42.016;23.098;2023-06-22T07:18:10;18.40;;;13.52;;
7336;SDS011;54510;42.016;23.098;2023-06-22T07:20:36;17.17;;;11.23;;
7336;SDS011;54510;42.016;23.098;2023-06-22T07:23:01;16.67;;;12.50;;
7336;SDS011;54510;42.016;23.098;2023-06-22T07:25:27;17.65;;;12.00;;
7336;SDS011;54510;42.016;23.098;2023-06-22T07:30:31;14.68;;;10.65;;
7336;SDS011;54510;42.016;23.098;2023-06-22T07:32:58;11.70;;;10.40;;
7336;SDS011;54510;42.016;23.098;2023-06-22T07:35:25;13.40;;;10.60;;
7336;SDS011;54510;42.016;23.098;2023-06-22T07:37:50;13.73;;;11.35;;
7336;SDS011;54510;42.016;23.098;2023-06-22T07:40:16;12.85;;;10.20;;
7336;SDS011;54510;42.016;23.098;2023-06-22T07:42:41;15.25;;;11.32;;
7336;SDS011;54510;42.016;23.098;2023-06-22T07:45:07;14.77;;;10.65;;
7336;SDS011;54510;42.016;23.098;2023-06-22T07:47:33;15.50;;;12.35;;
7336;SDS011;54510;42.016;23.098;2023-06-22T07:50:00;15.68;;;11.48;;
7336;SDS011;54510;42.016;23.098;2023-06-22T07:52:27;13.57;;;11.65;;
7336;SDS011;54510;42.016;23.098;2023-06-22T07:54:52;10.57;;;9.48;;
7336;SDS011;54510;42.016;23.098;2023-06-22T07:57:18;14.35;;;9.75;;
7336;SDS011;54510;42.016;23.098;2023-06-22T07:59:44;14.88;;;11.50;;
7336;SDS011;54510;42.016;23.098;2023-06-22T08:02:09;12.38;;;9.75;;
7336;SDS011;54510;42.016;23.098;2023-06-22T08:04:35;12.68;;;10.10;;
7336;SDS011;54510;42.016;23.098;2023-06-22T08:07:00;14.95;;;11.02;;
7336;SDS011;54510;42.016;23.098;2023-06-22T08:09:30;11.90;;;10.13;;
7336;SDS011;54510;42.016;23.098;2023-06-22T08:11:56;11.60;;;9.20;;
7336;SDS011;54510;42.016;23.098;2023-06-22T08:14:23;14.18;;;9.95;;
7336;SDS011;54510;42.016;23.098;2023-06-22T08:16:50;14.07;;;9.52;;
7336;SDS011;54510;42.016;23.098;2023-06-22T08:19:15;13.45;;;10.07;;
7336;SDS011;54510;42.016;23.098;2023-06-22T08:21:41;13.68;;;10.13;;
7336;SDS011;54510;42.016;23.098;2023-06-22T08:24:07;15.02;;;10.68;;
7336;SDS011;54510;42.016;23.098;2023-06-22T08:26:33;10.35;;;8.90;;
7336;SDS011;54510;42.016;23.098;2023-06-22T08:29:02;15.85;;;12.32;;
7336;SDS011;54510;42.016;23.098;2023-06-22T08:31:27;12.60;;;10.02;;
7336;SDS011;54510;42.016;23.098;2023-06-22T08:33:53;13.57;;;10.48;;
7336;SDS011;54510;42.016;23.098;2023-06-22T08:36:18;13.93;;;12.43;;
7336;SDS011;54510;42.016;23.098;2023-06-22T08:38:44;13.40;;;10.40;;
7336;SDS011;54510;42.016;23.098;2023-06-22T08:41:10;12.73;;;10.63;;
7336;SDS011;54510;42.016;23.098;2023-06-22T08:43:35;12.57;;;10.00;;
7336;SDS011;54510;42.016;23.098;2023-06-22T08:46:01;11.80;;;10.15;;
7336;SDS011;54510;42.016;23.098;2023-06-22T08:48:27;16.52;;;10.82;;
7336;SDS011;54510;42.016;23.098;2023-06-22T08:50:53;14.35;;;11.45;;
7336;SDS011;54510;42.016;23.098;2023-06-22T08:53:18;23.58;;;14.07;;
7336;SDS011;54510;42.016;23.098;2023-06-22T08:55:44;15.25;;;13.43;;
7336;SDS011;54510;42.016;23.098;2023-06-22T08:58:10;15.38;;;10.43;;
7336;SDS011;54510;42.016;23.098;2023-06-22T09:00:35;14.82;;;12.00;;
7336;SDS011;54510;42.016;23.098;2023-06-22T09:03:02;16.15;;;10.93;;
7336;SDS011;54510;42.016;23.098;2023-06-22T09:05:28;13.27;;;10.90;;
7336;SDS011;54510;42.016;23.098;2023-06-22T09:07:56;11.80;;;9.63;;
7336;SDS011;54510;42.016;23.098;2023-06-22T09:10:23;11.38;;;10.18;;
7336;SDS011;54510;42.016;23.098;2023-06-22T09:12:49;13.48;;;10.95;;
7336;SDS011;54510;42.016;23.098;2023-06-22T09:15:14;17.80;;;12.68;;
7336;SDS011;54510;42.016;23.098;2023-06-22T09:17:40;10.77;;;9.23;;
7336;SDS011;54510;42.016;23.098;2023-06-22T09:20:06;11.70;;;8.52;;
7336;SDS011;54510;42.016;23.098;2023-06-22T09:22:32;11.63;;;9.30;;
7336;SDS011;54510;42.016;23.098;2023-06-22T09:24:58;10.40;;;9.35;;
7336;SDS011;54510;42.016;23.098;2023-06-22T09:27:24;14.73;;;9.95;;
7336;SDS011;54510;42.016;23.098;2023-06-22T09:29:50;9.85;;;8.85;;
7336;SDS011;54510;42.016;23.098;2023-06-22T09:32:15;11.05;;;9.88;;
7336;SDS011;54510;42.016;23.098;2023-06-22T09:34:41;12.27;;;9.05;;
7336;SDS011;54510;42.016;23.098;2023-06-22T09:37:06;10.20;;;8.73;;
7336;SDS011;54510;42.016;23.098;2023-06-22T09:39:32;10.30;;;8.90;;
7336;SDS011;54510;42.016;23.098;2023-06-22T09:42:00;9.30;;;8.20;;
7336;SDS011;54510;42.016;23.098;2023-06-22T09:44:26;10.05;;;8.60;;
7336;SDS011;54510;42.016;23.098;2023-06-22T09:46:51;9.73;;;8.25;;
7336;SDS011;54510;42.016;23.098;2023-06-22T09:49:17;13.65;;;10.57;;
7336;SDS011;54510;42.016;23.098;2023-06-22T09:51:42;10.95;;;9.02;;
7336;SDS011;54510;42.016;23.098;2023-06-22T09:54:07;8.38;;;7.50;;
7336;SDS011;54510;42.016;23.098;2023-06-22T09:56:33;9.68;;;7.88;;
7336;SDS011;54510;42.016;23.098;2023-06-22T09:58:58;10.80;;;8.07;;
7336;SDS011;54510;42.016;23.098;2023-06-22T10:01:24;10.73;;;8.90;;
7336;SDS011;54510;42.016;23.098;2023-06-22T10:03:49;13.38;;;9.73;;
7336;SDS011;54510;42.016;23.098;2023-06-22T10:06:19;9.05;;;8.13;;
7336;SDS011;54510;42.016;23.098;2023-06-22T10:08:45;10.35;;;7.97;;
7336;SDS011;54510;42.016;23.098;2023-06-22T10:11:10;10.52;;;8.55;;
7336;SDS011;54510;42.016;23.098;2023-06-22T10:13:36;11.68;;;9.15;;
7336;SDS011;54510;42.016;23.098;2023-06-22T10:16:01;11.93;;;8.95;;
7336;SDS011;54510;42.016;23.098;2023-06-22T10:18:27;11.82;;;9.90;;
7336;SDS011;54510;42.016;23.098;2023-06-22T10:20:52;10.32;;;8.80;;
7336;SDS011;54510;42.016;23.098;2023-06-22T10:23:18;10.43;;;9.43;;
7336;SDS011;54510;42.016;23.098;2023-06-22T10:25:44;8.75;;;7.85;;
7336;SDS011;54510;42.016;23.098;2023-06-22T10:28:10;8.82;;;7.93;;
7336;SDS011;54510;42.016;23.098;2023-06-22T10:30:35;9.52;;;8.63;;
7336;SDS011;54510;42.016;23.098;2023-06-22T10:33:01;9.60;;;8.60;;
7336;SDS011;54510;42.016;23.098;2023-06-22T10:35:26;9.43;;;8.45;;
7336;SDS011;54510;42.016;23.098;2023-06-22T10:37:52;14.55;;;8.30;;
7336;SDS011;54510;42.016;23.098;2023-06-22T10:40:17;8.65;;;7.85;;
7336;SDS011;54510;42.016;23.098;2023-06-22T10:45:18;11.18;;;8.23;;
7336;SDS011;54510;42.016;23.098;2023-06-22T10:47:44;9.88;;;7.03;;
7336;SDS011;54510;42.016;23.098;2023-06-22T10:50:10;9.15;;;7.68;;
7336;SDS011;54510;42.016;23.098;2023-06-22T10:52:53;8.48;;;7.57;;
7336;SDS011;54510;42.016;23.098;2023-06-22T10:55:19;11.85;;;7.32;;
7336;SDS011;54510;42.016;23.098;2023-06-22T10:57:44;9.30;;;7.28;;
7336;SDS011;54510;42.016;23.098;2023-06-22T11:00:12;11.93;;;7.85;;
7336;SDS011;54510;42.016;23.098;2023-06-22T11:02:38;9.18;;;8.13;;
7336;SDS011;54510;42.016;23.098;2023-06-22T11:05:04;9.10;;;7.43;;
7336;SDS011;54510;42.016;23.098;2023-06-22T11:07:30;8.60;;;7.47;;
7336;SDS011;54510;42.016;23.098;2023-06-22T11:09:56;7.40;;;6.70;;
7336;SDS011;54510;42.016;23.098;2023-06-22T11:12:21;12.07;;;9.38;;
7336;SDS011;54510;42.016;23.098;2023-06-22T11:14:47;8.82;;;6.63;;
7336;SDS011;54510;42.016;23.098;2023-06-22T11:17:12;6.72;;;6.00;;
7336;SDS011;54510;42.016;23.098;2023-06-22T11:19:38;7.22;;;6.47;;
7336;SDS011;54510;42.016;23.098;2023-06-22T11:22:03;8.32;;;6.47;;
7336;SDS011;54510;42.016;23.098;2023-06-22T11:24:29;7.00;;;6.22;;
7336;SDS011;54510;42.016;23.098;2023-06-22T11:26:54;8.00;;;5.88;;
7336;SDS011;54510;42.016;23.098;2023-06-22T11:29:20;8.32;;;6.38;;
7336;SDS011;54510;42.016;23.098;2023-06-22T11:31:45;8.82;;;6.15;;
7336;SDS011;54510;42.016;23.098;2023-06-22T11:34:11;6.28;;;5.45;;
7336;SDS011;54510;42.016;23.098;2023-06-22T11:36:36;7.15;;;6.32;;
7336;SDS011;54510;42.016;23.098;2023-06-22T11:39:01;6.60;;;5.90;;
7336;SDS011;54510;42.016;23.098;2023-06-22T11:41:27;9.85;;;7.07;;
7336;SDS011;54510;42.016;23.098;2023-06-22T11:43:53;8.75;;;6.90;;
7336;SDS011;54510;42.016;23.098;2023-06-22T11:46:18;9.45;;;6.25;;
7336;SDS011;54510;42.016;23.098;2023-06-22T11:48:44;7.40;;;5.82;;
7336;SDS011;54510;42.016;23.098;2023-06-22T11:51:09;6.57;;;5.30;;
7336;SDS011;54510;42.016;23.098;2023-06-22T11:53:34;6.50;;;5.90;;
7336;SDS011;54510;42.016;23.098;2023-06-22T11:56:00;8.48;;;5.78;;
7336;SDS011;54510;42.016;23.098;2023-06-22T11:58:26;7.60;;;6.15;;
7336;SDS011;54510;42.016;23.098;2023-06-22T12:00:52;6.85;;;6.20;;
7336;SDS011;54510;42.016;23.098;2023-06-22T12:03:19;6.97;;;5.75;;
7336;SDS011;54510;42.016;23.098;2023-06-22T12:05:46;7.30;;;6.15;;
7336;SDS011;54510;42.016;23.098;2023-06-22T12:08:12;8.18;;;6.60;;
7336;SDS011;54510;42.016;23.098;2023-06-22T12:10:38;9.55;;;6.15;;
7336;SDS011;54510;42.016;23.098;2023-06-22T12:13:04;6.47;;;5.88;;
7336;SDS011;54510;42.016;23.098;2023-06-22T12:15:29;8.45;;;5.72;;
7336;SDS011;54510;42.016;23.098;2023-06-22T12:17:55;6.75;;;6.15;;
7336;SDS011;54510;42.016;23.098;2023-06-22T12:20:20;8.93;;;6.60;;
7336;SDS011;54510;42.016;23.098;2023-06-22T12:22:45;8.63;;;6.53;;
7336;SDS011;54510;42.016;23.098;2023-06-22T12:25:12;7.53;;;6.70;;
7336;SDS011;54510;42.016;23.098;2023-06-22T12:27:38;7.45;;;6.03;;
7336;SDS011;54510;42.016;23.098;2023-06-22T12:30:03;7.50;;;6.60;;
7336;SDS011;54510;42.016;23.098;2023-06-22T12:32:30;8.48;;;6.30;;
7336;SDS011;54510;42.016;23.098;2023-06-22T12:34:55;7.40;;;6.70;;
7336;SDS011;54510;42.016;23.098;2023-06-22T12:37:22;9.07;;;6.53;;
7336;SDS011;54510;42.016;23.098;2023-06-22T12:39:47;10.30;;;7.00;;
7336;SDS011;54510;42.016;23.098;2023-06-22T12:42:13;7.22;;;6.38;;
7336;SDS011;54510;42.016;23.098;2023-06-22T12:44:38;8.13;;;6.90;;
7336;SDS011;54510;42.016;23.098;2023-06-22T12:47:04;10.85;;;6.55;;
7336;SDS011;54510;42.016;23.098;2023-06-22T12:49:30;9.65;;;6.93;;
7336;SDS011;54510;42.016;23.098;2023-06-22T12:51:56;9.75;;;6.40;;
7336;SDS011;54510;42.016;23.098;2023-06-22T12:54:21;7.78;;;6.40;;
7336;SDS011;54510;42.016;23.098;2023-06-22T12:56:47;7.63;;;6.80;;
7336;SDS011;54510;42.016;23.098;2023-06-22T12:59:12;11.20;;;7.15;;
7336;SDS011;54510;42.016;23.098;2023-06-22T13:01:37;10.40;;;6.57;;
7336;SDS011;54510;42.016;23.098;2023-06-22T13:04:03;7.50;;;6.40;;
7336;SDS011;54510;42.016;23.098;2023-06-22T13:06:29;7.05;;;6.35;;
7336;SDS011;54510;42.016;23.098;2023-06-22T13:08:54;7.60;;;6.75;;
7336;SDS011;54510;42.016;23.098;2023-06-22T13:11:20;7.53;;;6.10;;
7336;SDS011;54510;42.016;23.098;2023-06-22T13:13:45;8.10;;;7.28;;
7336;SDS011;54510;42.016;23.098;2023-06-22T13:16:11;10.75;;;7.80;;
7336;SDS011;54510;42.016;23.098;2023-06-22T13:18:37;8.48;;;7.05;;
7336;SDS011;54510;42.016;23.098;2023-06-22T13:21:03;9.45;;;7.60;;
7336;SDS011;54510;42.016;23.098;2023-06-22T13:23:29;8.88;;;7.38;;
7336;SDS011;54510;42.016;23.098;2023-06-22T13:25:54;9.02;;;7.82;;
7336;SDS011;54510;42.016;23.098;2023-06-22T13:28:20;10.02;;;7.53;;
7336;SDS011;54510;42.016;23.098;2023-06-22T13:30:46;9.68;;;7.70;;
7336;SDS011;54510;42.016;23.098;2023-06-22T13:33:12;10.05;;;7.50;;
7336;SDS011;54510;42.016;23.098;2023-06-22T13:35:39;8.63;;;7.68;;
7336;SDS011;54510;42.016;23.098;2023-06-22T13:38:04;8.10;;;7.28;;
7336;SDS011;54510;42.016;23.098;2023-06-22T13:40:30;10.43;;;7.85;;
7336;SDS011;54510;42.016;23.098;2023-06-22T13:42:56;11.30;;;8.43;;
7336;SDS011;54510;42.016;23.098;2023-06-22T13:45:21;10.05;;;7.07;;
7336;SDS011;54510;42.016;23.098;2023-06-22T13:47:47;8.88;;;7.97;;
7336;SDS011;54510;42.016;23.098;2023-06-22T13:50:13;9.50;;;7.00;;
7336;SDS011;54510;42.016;23.098;2023-06-22T13:52:38;7.63;;;6.55;;
7336;SDS011;54510;42.016;23.098;2023-06-22T13:55:04;9.27;;;5.60;;
7336;SDS011;54510;42.016;23.098;2023-06-22T13:57:31;5.60;;;4.93;;
7336;SDS011;54510;42.016;23.098;2023-06-22T13:59:57;6.13;;;4.50;;
7336;SDS011;54510;42.016;23.098;2023-06-22T14:02:23;9.77;;;5.18;;
7336;SDS011;54510;42.016;23.098;2023-06-22T14:04:48;8.48;;;5.68;;
7336;SDS011;54510;42.016;23.098;2023-06-22T14:07:14;7.43;;;4.53;;
7336;SDS011;54510;42.016;23.098;2023-06-22T14:09:39;7.35;;;4.85;;
7336;SDS011;54510;42.016;23.098;2023-06-22T14:12:05;6.15;;;4.00;;
7336;SDS011;54510;42.016;23.098;2023-06-22T14:14:31;7.82;;;4.38;;
7336;SDS011;54510;42.016;23.098;2023-06-22T14:16:58;6.22;;;4.28;;
7336;SDS011;54510;42.016;23.098;2023-06-22T14:19:23;9.65;;;4.65;;
7336;SDS011;54510;42.016;23.098;2023-06-22T14:21:49;10.60;;;6.40;;
7336;SDS011;54510;42.016;23.098;2023-06-22T14:24:14;8.90;;;5.85;;
7336;SDS011;54510;42.016;23.098;2023-06-22T14:26:40;15.63;;;5.13;;
7336;SDS011;54510;42.016;23.098;2023-06-22T14:29:05;11.82;;;5.13;;
7336;SDS011;54510;42.016;23.098;2023-06-22T14:31:31;9.98;;;5.32;;
7336;SDS011;54510;42.016;23.098;2023-06-22T14:33:56;8.13;;;5.20;;
7336;SDS011;54510;42.016;23.098;2023-06-22T14:36:21;8.38;;;5.25;;
7336;SDS011;54510;42.016;23.098;2023-06-22T14:38:47;11.43;;;4.82;;
7336;SDS011;54510;42.016;23.098;2023-06-22T14:41:12;7.72;;;5.32;;
7336;SDS011;54510;42.016;23.098;2023-06-22T14:43:43;8.52;;;5.43;;
7336;SDS011;54510;42.016;23.098;2023-06-22T14:46:10;8.38;;;5.32;;
7336;SDS011;54510;42.016;23.098;2023-06-22T14:48:35;7.40;;;5.32;;